sensor_id;sensor_type;location;lat;lon;timestamp;temperature;humidity
71297;SHT31;59082;50.658;4.608;2022-11-13T07:47:10;5.51;99.99
71297;SHT31;59082;50.658;4.608;2022-11-13T07:49:36;5.53;99.99
71297;SHT31;59082;50.658;4.608;2022-11-13T07:52:01;5.63;99.99
71297;SHT31;59082;50.658;4.608;2022-11-13T07:54:26;5.61;99.99
71297;SHT31;59082;50.658;4.608;2022-11-13T07:56:52;5.63;99.99
71297;SHT31;59082;50.658;4.608;2022-11-13T07:59:17;5.63;99.99
71297;SHT31;59082;50.658;4.608;2022-11-13T08:01:43;5.60;99.99
71297;SHT31;59082;50.658;4.608;2022-11-13T08:04:08;5.64;99.99
71297;SHT31;59082;50.658;4.608;2022-11-13T08:06:36;5.70;99.99
71297;SHT31;59082;50.658;4.608;2022-11-13T08:09:01;5.70;99.99
71297;SHT31;59082;50.658;4.608;2022-11-13T08:11:27;5.75;99.99
71297;SHT31;59082;50.658;4.608;2022-11-13T08:13:53;5.81;99.99
71297;SHT31;59082;50.658;4.608;2022-11-13T08:16:18;5.83;99.99
71297;SHT31;59082;50.658;4.608;2022-11-13T08:18:44;5.91;99.99
71297;SHT31;59082;50.658;4.608;2022-11-13T08:21:09;5.95;99.99
71297;SHT31;59082;50.658;4.608;2022-11-13T08:23:34;6.04;99.99
71297;SHT31;59082;50.658;4.608;2022-11-13T08:26:04;6.11;99.99
71297;SHT31;59082;50.658;4.608;2022-11-13T08:28:30;6.12;99.99
71297;SHT31;59082;50.658;4.608;2022-11-13T08:30:56;6.18;99.99
71297;SHT31;59082;50.658;4.608;2022-11-13T08:33:21;6.21;99.99
71297;SHT31;59082;50.658;4.608;2022-11-13T08:35:54;6.25;99.99
71297;SHT31;59082;50.658;4.608;2022-11-13T08:38:19;6.30;99.99
71297;SHT31;59082;50.658;4.608;2022-11-13T08:40:46;6.34;99.99
71297;SHT31;59082;50.658;4.608;2022-11-13T08:43:11;6.40;99.99
71297;SHT31;59082;50.658;4.608;2022-11-13T08:45:36;6.46;99.99
71297;SHT31;59082;50.658;4.608;2022-11-13T08:48:03;6.56;99.99
71297;SHT31;59082;50.658;4.608;2022-11-13T08:50:30;6.80;99.99
71297;SHT31;59082;50.658;4.608;2022-11-13T08:52:57;7.07;99.99
71297;SHT31;59082;50.658;4.608;2022-11-13T08:55:23;7.32;99.99
71297;SHT31;59082;50.658;4.608;2022-11-13T08:57:49;7.57;99.99
71297;SHT31;59082;50.658;4.608;2022-11-13T09:00:15;8.08;99.99
71297;SHT31;59082;50.658;4.608;2022-11-13T09:02:41;9.07;99.99
71297;SHT31;59082;50.658;4.608;2022-11-13T09:05:07;9.67;99.99
71297;SHT31;59082;50.658;4.608;2022-11-13T09:07:33;9.48;99.99
71297;SHT31;59082;50.658;4.608;2022-11-13T09:09:58;9.46;99.99
71297;SHT31;59082;50.658;4.608;2022-11-13T09:12:24;9.34;99.99
71297;SHT31;59082;50.658;4.608;2022-11-13T09:14:49;9.21;99.99
71297;SHT31;59082;50.658;4.608;2022-11-13T09:17:15;9.25;99.99
71297;SHT31;59082;50.658;4.608;2022-11-13T09:19:41;9.19;99.99
71297;SHT31;59082;50.658;4.608;2022-11-13T09:22:07;9.22;99.99
71297;SHT31;59082;50.658;4.608;2022-11-13T09:24:32;9.39;99.99
71297;SHT31;59082;50.658;4.608;2022-11-13T09:26:58;9.66;99.99
71297;SHT31;59082;50.658;4.608;2022-11-13T09:29:23;10.30;97.58
71297;SHT31;59082;50.658;4.608;2022-11-13T09:31:50;10.59;98.57
71297;SHT31;59082;50.658;4.608;2022-11-13T09:34:16;10.46;97.41
71297;SHT31;59082;50.658;4.608;2022-11-13T09:36:41;10.77;96.57
71297;SHT31;59082;50.658;4.608;2022-11-13T09:39:07;11.01;96.77
71297;SHT31;59082;50.658;4.608;2022-11-13T09:44:34;12.44;94.62
71297;SHT31;59082;50.658;4.608;2022-11-13T09:47:08;13.15;91.94
71297;SHT31;59082;50.658;4.608;2022-11-13T09:49:42;14.67;88.87
71297;SHT31;59082;50.658;4.608;2022-11-13T09:52:13;15.71;83.32
71297;SHT31;59082;50.658;4.608;2022-11-13T09:54:39;16.53;83.20
71297;SHT31;59082;50.658;4.608;2022-11-13T09:57:14;16.77;80.46
71297;SHT31;59082;50.658;4.608;2022-11-13T09:59:53;17.68;80.60
71297;SHT31;59082;50.658;4.608;2022-11-13T10:05:30;17.20;78.40
71297;SHT31;59082;50.658;4.608;2022-11-13T10:13:49;14.98;83.12
71297;SHT31;59082;50.658;4.608;2022-11-13T10:16:37;14.61;84.84
71297;SHT31;59082;50.658;4.608;2022-11-13T10:21:55;14.37;84.93
71297;SHT31;59082;50.658;4.608;2022-11-13T10:24:36;13.73;86.76
71297;SHT31;59082;50.658;4.608;2022-11-13T10:27:07;14.61;84.94
71297;SHT31;59082;50.658;4.608;2022-11-13T10:29:34;14.36;85.76
71297;SHT31;59082;50.658;4.608;2022-11-13T10:32:19;14.06;86.55
71297;SHT31;59082;50.658;4.608;2022-11-13T10:34:50;13.75;87.46
71297;SHT31;59082;50.658;4.608;2022-11-13T10:37:27;13.50;88.97
71297;SHT31;59082;50.658;4.608;2022-11-13T10:39:54;13.22;89.11
71297;SHT31;59082;50.658;4.608;2022-11-13T10:42:22;13.15;89.46
71297;SHT31;59082;50.658;4.608;2022-11-13T10:44:58;12.93;90.32
71297;SHT31;59082;50.658;4.608;2022-11-13T10:47:26;12.85;90.17
71297;SHT31;59082;50.658;4.608;2022-11-13T10:49:54;12.84;89.86
71297;SHT31;59082;50.658;4.608;2022-11-13T10:52:22;12.75;90.34
71297;SHT31;59082;50.658;4.608;2022-11-13T10:54:48;12.82;90.59
71297;SHT31;59082;50.658;4.608;2022-11-13T10:57:40;13.13;89.79
71297;SHT31;59082;50.658;4.608;2022-11-13T11:00:33;13.48;90.51
71297;SHT31;59082;50.658;4.608;2022-11-13T11:02:59;14.64;87.24
71297;SHT31;59082;50.658;4.608;2022-11-13T11:05:26;15.62;85.29
71297;SHT31;59082;50.658;4.608;2022-11-13T11:07:53;15.52;84.57
71297;SHT31;59082;50.658;4.608;2022-11-13T11:12:55;16.73;82.03
71297;SHT31;59082;50.658;4.608;2022-11-13T11:18:04;19.40;75.35
71297;SHT31;59082;50.658;4.608;2022-11-13T11:21:01;20.36;72.64
71297;SHT31;59082;50.658;4.608;2022-11-13T11:26:00;17.93;76.30
71297;SHT31;59082;50.658;4.608;2022-11-13T11:28:40;17.03;78.02
71297;SHT31;59082;50.658;4.608;2022-11-13T11:31:16;16.93;78.43
71297;SHT31;59082;50.658;4.608;2022-11-13T11:36:37;16.35;80.53
71297;SHT31;59082;50.658;4.608;2022-11-13T11:39:27;15.67;82.25
71297;SHT31;59082;50.658;4.608;2022-11-13T11:42:09;15.11;84.26
71297;SHT31;59082;50.658;4.608;2022-11-13T11:45:10;14.66;84.80
71297;SHT31;59082;50.658;4.608;2022-11-13T11:47:37;14.41;85.54
71297;SHT31;59082;50.658;4.608;2022-11-13T11:50:09;14.32;85.78
71297;SHT31;59082;50.658;4.608;2022-11-13T11:52:58;14.19;87.16
71297;SHT31;59082;50.658;4.608;2022-11-13T11:58:30;13.91;88.27
71297;SHT31;59082;50.658;4.608;2022-11-13T12:01:22;13.84;89.37
71297;SHT31;59082;50.658;4.608;2022-11-13T12:04:34;13.81;89.42
71297;SHT31;59082;50.658;4.608;2022-11-13T12:15:48;13.54;88.92
71297;SHT31;59082;50.658;4.608;2022-11-13T12:26:27;13.60;88.42
71297;SHT31;59082;50.658;4.608;2022-11-13T12:29:05;13.57;87.86
71297;SHT31;59082;50.658;4.608;2022-11-13T12:34:41;13.50;86.83
71297;SHT31;59082;50.658;4.608;2022-11-13T12:45:53;13.39;87.55
71297;SHT31;59082;50.658;4.608;2022-11-13T12:48:20;13.40;86.89
71297;SHT31;59082;50.658;4.608;2022-11-13T12:51:06;13.39;87.27
71297;SHT31;59082;50.658;4.608;2022-11-13T12:53:51;13.50;86.51
71297;SHT31;59082;50.658;4.608;2022-11-13T13:01:47;13.43;87.82
71297;SHT31;59082;50.658;4.608;2022-11-13T13:07:14;13.42;88.32
71297;SHT31;59082;50.658;4.608;2022-11-13T13:16:00;13.42;86.54
71297;SHT31;59082;50.658;4.608;2022-11-13T13:18:32;13.40;86.88
71297;SHT31;59082;50.658;4.608;2022-11-13T13:21:10;13.39;86.87
71297;SHT31;59082;50.658;4.608;2022-11-13T13:23:44;13.39;87.47
71297;SHT31;59082;50.658;4.608;2022-11-13T13:28:41;13.42;87.88
71297;SHT31;59082;50.658;4.608;2022-11-13T13:36:42;13.24;88.54
71297;SHT31;59082;50.658;4.608;2022-11-13T13:39:40;13.19;88.88
71297;SHT31;59082;50.658;4.608;2022-11-13T13:47:48;13.13;88.81
71297;SHT31;59082;50.658;4.608;2022-11-13T13:50:20;13.19;88.76
71297;SHT31;59082;50.658;4.608;2022-11-13T13:52:47;13.24;88.49
71297;SHT31;59082;50.658;4.608;2022-11-13T13:55:42;13.47;88.00
71297;SHT31;59082;50.658;4.608;2022-11-13T13:58:14;13.34;87.85
71297;SHT31;59082;50.658;4.608;2022-11-13T14:00:40;13.27;88.15
71297;SHT31;59082;50.658;4.608;2022-11-13T14:03:17;13.30;88.04
71297;SHT31;59082;50.658;4.608;2022-11-13T14:05:43;13.30;88.40
71297;SHT31;59082;50.658;4.608;2022-11-13T14:08:19;13.63;87.27
71297;SHT31;59082;50.658;4.608;2022-11-13T14:10:46;13.30;87.19
71297;SHT31;59082;50.658;4.608;2022-11-13T14:13:22;13.15;87.84
71297;SHT31;59082;50.658;4.608;2022-11-13T14:16:02;13.07;88.16
71297;SHT31;59082;50.658;4.608;2022-11-13T14:18:28;13.00;88.72
71297;SHT31;59082;50.658;4.608;2022-11-13T14:21:00;12.95;88.60
71297;SHT31;59082;50.658;4.608;2022-11-13T14:25:55;12.87;89.24
71297;SHT31;59082;50.658;4.608;2022-11-13T14:28:25;12.82;89.43
71297;SHT31;59082;50.658;4.608;2022-11-13T14:30:56;12.81;90.13
71297;SHT31;59082;50.658;4.608;2022-11-13T14:33:29;12.69;90.63
71297;SHT31;59082;50.658;4.608;2022-11-13T14:35:56;12.60;90.88
71297;SHT31;59082;50.658;4.608;2022-11-13T14:38:27;12.55;91.25
71297;SHT31;59082;50.658;4.608;2022-11-13T14:40:53;12.50;91.57
71297;SHT31;59082;50.658;4.608;2022-11-13T14:43:24;12.40;91.83
71297;SHT31;59082;50.658;4.608;2022-11-13T14:46:03;12.42;91.82
71297;SHT31;59082;50.658;4.608;2022-11-13T14:48:31;12.52;91.48
71297;SHT31;59082;50.658;4.608;2022-11-13T14:50:59;12.52;91.29
71297;SHT31;59082;50.658;4.608;2022-11-13T14:53:33;12.48;91.48
71297;SHT31;59082;50.658;4.608;2022-11-13T14:56:10;12.37;91.89
71297;SHT31;59082;50.658;4.608;2022-11-13T14:58:42;12.27;91.86
71297;SHT31;59082;50.658;4.608;2022-11-13T15:03:41;12.10;92.35
71297;SHT31;59082;50.658;4.608;2022-11-13T15:06:16;12.02;92.67
71297;SHT31;59082;50.658;4.608;2022-11-13T15:08:44;11.97;93.08
71297;SHT31;59082;50.658;4.608;2022-11-13T15:11:14;11.89;93.44
71297;SHT31;59082;50.658;4.608;2022-11-13T15:13:40;11.81;93.86
71297;SHT31;59082;50.658;4.608;2022-11-13T15:16:05;11.71;94.07
71297;SHT31;59082;50.658;4.608;2022-11-13T15:18:31;11.66;94.24
71297;SHT31;59082;50.658;4.608;2022-11-13T15:20:57;11.62;94.67
71297;SHT31;59082;50.658;4.608;2022-11-13T15:23:24;11.52;94.76
71297;SHT31;59082;50.658;4.608;2022-11-13T15:25:50;11.45;94.98
71297;SHT31;59082;50.658;4.608;2022-11-13T15:28:19;11.38;95.01
71297;SHT31;59082;50.658;4.608;2022-11-13T15:30:44;11.30;95.15
71297;SHT31;59082;50.658;4.608;2022-11-13T15:33:12;11.26;95.57
71297;SHT31;59082;50.658;4.608;2022-11-13T15:35:40;11.13;95.85
71297;SHT31;59082;50.658;4.608;2022-11-13T15:38:08;11.06;96.08
71297;SHT31;59082;50.658;4.608;2022-11-13T15:40:34;10.93;96.32
71297;SHT31;59082;50.658;4.608;2022-11-13T15:43:00;10.88;96.66
71297;SHT31;59082;50.658;4.608;2022-11-13T15:45:26;10.81;96.98
71297;SHT31;59082;50.658;4.608;2022-11-13T15:47:52;10.70;97.32
71297;SHT31;59082;50.658;4.608;2022-11-13T15:50:17;10.61;97.71
71297;SHT31;59082;50.658;4.608;2022-11-13T15:52:48;10.51;97.91
71297;SHT31;59082;50.658;4.608;2022-11-13T15:57:45;10.30;98.57
71297;SHT31;59082;50.658;4.608;2022-11-13T16:00:16;10.24;98.78
71297;SHT31;59082;50.658;4.608;2022-11-13T16:02:41;10.13;98.97
71297;SHT31;59082;50.658;4.608;2022-11-13T16:05:07;10.04;99.32
71297;SHT31;59082;50.658;4.608;2022-11-13T16:07:33;9.94;99.64
71297;SHT31;59082;50.658;4.608;2022-11-13T16:09:58;9.87;99.99
71297;SHT31;59082;50.658;4.608;2022-11-13T16:12:24;9.82;99.99
71297;SHT31;59082;50.658;4.608;2022-11-13T16:14:49;9.72;99.99
71297;SHT31;59082;50.658;4.608;2022-11-13T16:17:17;9.66;99.99
71297;SHT31;59082;50.658;4.608;2022-11-13T16:19:51;9.57;99.99
71297;SHT31;59082;50.658;4.608;2022-11-13T16:22:25;9.52;99.99
71297;SHT31;59082;50.658;4.608;2022-11-13T16:24:51;9.43;99.99
71297;SHT31;59082;50.658;4.608;2022-11-13T16:27:26;9.42;99.99
71297;SHT31;59082;50.658;4.608;2022-11-13T16:29:52;9.31;99.99
71297;SHT31;59082;50.658;4.608;2022-11-13T16:32:19;9.27;99.99
71297;SHT31;59082;50.658;4.608;2022-11-13T16:34:45;9.22;99.99
71297;SHT31;59082;50.658;4.608;2022-11-13T16:37:16;9.15;99.99
71297;SHT31;59082;50.658;4.608;2022-11-13T16:39:43;9.11;99.99
71297;SHT31;59082;50.658;4.608;2022-11-13T16:42:10;9.05;99.99
71297;SHT31;59082;50.658;4.608;2022-11-13T16:44:36;9.01;99.99
71297;SHT31;59082;50.658;4.608;2022-11-13T16:47:04;8.94;99.99
71297;SHT31;59082;50.658;4.608;2022-11-13T16:49:29;8.92;99.99
71297;SHT31;59082;50.658;4.608;2022-11-13T16:51:55;8.91;99.99
71297;SHT31;59082;50.658;4.608;2022-11-13T16:54:20;8.90;99.99
71297;SHT31;59082;50.658;4.608;2022-11-13T16:56:46;8.88;99.99
71297;SHT31;59082;50.658;4.608;2022-11-13T16:59:11;8.84;99.99
71297;SHT31;59082;50.658;4.608;2022-11-13T17:01:37;8.81;99.99
71297;SHT31;59082;50.658;4.608;2022-11-13T17:04:03;8.76;99.99
71297;SHT31;59082;50.658;4.608;2022-11-13T17:06:33;8.70;99.99
71297;SHT31;59082;50.658;4.608;2022-11-13T17:09:01;8.77;99.99
71297;SHT31;59082;50.658;4.608;2022-11-13T17:11:29;8.83;99.99
71297;SHT31;59082;50.658;4.608;2022-11-13T17:13:56;8.80;99.99
71297;SHT31;59082;50.658;4.608;2022-11-13T17:16:23;8.81;99.99
71297;SHT31;59082;50.658;4.608;2022-11-13T17:18:49;8.80;99.99
71297;SHT31;59082;50.658;4.608;2022-11-13T17:21:27;8.84;99.99
71297;SHT31;59082;50.658;4.608;2022-11-13T17:23:56;8.79;99.99
71297;SHT31;59082;50.658;4.608;2022-11-13T17:26:23;8.77;99.99
71297;SHT31;59082;50.658;4.608;2022-11-13T17:28:49;8.73;99.99
71297;SHT31;59082;50.658;4.608;2022-11-13T17:31:15;8.71;99.99
71297;SHT31;59082;50.658;4.608;2022-11-13T17:33:40;8.69;99.99
71297;SHT31;59082;50.658;4.608;2022-11-13T17:36:07;8.64;99.99
71297;SHT31;59082;50.658;4.608;2022-11-13T17:38:33;8.63;99.99
71297;SHT31;59082;50.658;4.608;2022-11-13T17:41:04;8.63;99.99
71297;SHT31;59082;50.658;4.608;2022-11-13T17:43:30;8.59;99.99
71297;SHT31;59082;50.658;4.608;2022-11-13T17:45:56;8.57;99.99
71297;SHT31;59082;50.658;4.608;2022-11-13T17:48:21;8.59;99.99
71297;SHT31;59082;50.658;4.608;2022-11-13T17:50:57;8.56;99.99
71297;SHT31;59082;50.658;4.608;2022-11-13T17:53:23;8.56;99.99
71297;SHT31;59082;50.658;4.608;2022-11-13T17:55:56;8.57;99.99
71297;SHT31;59082;50.658;4.608;2022-11-13T17:58:22;8.53;99.99
71297;SHT31;59082;50.658;4.608;2022-11-13T18:00:48;8.52;99.99
71297;SHT31;59082;50.658;4.608;2022-11-13T18:03:14;8.45;99.99
71297;SHT31;59082;50.658;4.608;2022-11-13T18:05:39;8.46;99.99
71297;SHT31;59082;50.658;4.608;2022-11-13T18:08:05;8.52;99.99
71297;SHT31;59082;50.658;4.608;2022-11-13T18:10:31;8.53;99.99
71297;SHT31;59082;50.658;4.608;2022-11-13T18:12:57;8.49;99.99
71297;SHT31;59082;50.658;4.608;2022-11-13T18:15:23;8.46;99.99
71297;SHT31;59082;50.658;4.608;2022-11-13T18:17:49;8.42;99.99
71297;SHT31;59082;50.658;4.608;2022-11-13T18:20:15;8.33;99.99
71297;SHT31;59082;50.658;4.608;2022-11-13T18:22:41;8.26;99.99
71297;SHT31;59082;50.658;4.608;2022-11-13T18:25:07;8.20;99.99
71297;SHT31;59082;50.658;4.608;2022-11-13T18:27:32;8.18;99.99
71297;SHT31;59082;50.658;4.608;2022-11-13T18:29:58;8.12;99.99
71297;SHT31;59082;50.658;4.608;2022-11-13T18:32:23;8.15;99.99
71297;SHT31;59082;50.658;4.608;2022-11-13T18:34:49;8.14;99.99
71297;SHT31;59082;50.658;4.608;2022-11-13T18:37:14;8.14;99.99
71297;SHT31;59082;50.658;4.608;2022-11-13T18:39:40;8.11;99.99
71297;SHT31;59082;50.658;4.608;2022-11-13T18:42:06;8.08;99.99
71297;SHT31;59082;50.658;4.608;2022-11-13T18:44:31;8.02;99.99
71297;SHT31;59082;50.658;4.608;2022-11-13T18:46:57;7.97;99.99
71297;SHT31;59082;50.658;4.608;2022-11-13T18:49:22;7.99;99.99
71297;SHT31;59082;50.658;4.608;2022-11-13T18:51:48;7.95;99.99
71297;SHT31;59082;50.658;4.608;2022-11-13T18:54:13;7.93;99.99
71297;SHT31;59082;50.658;4.608;2022-11-13T18:56:39;7.91;99.99
71297;SHT31;59082;50.658;4.608;2022-11-13T18:59:05;7.87;99.99
71297;SHT31;59082;50.658;4.608;2022-11-13T19:01:32;7.78;99.99
71297;SHT31;59082;50.658;4.608;2022-11-13T19:04:01;7.71;99.99
71297;SHT31;59082;50.658;4.608;2022-11-13T19:06:27;7.63;99.99
71297;SHT31;59082;50.658;4.608;2022-11-13T19:08:54;7.50;99.99
71297;SHT31;59082;50.658;4.608;2022-11-13T19:11:21;7.45;99.99
71297;SHT31;59082;50.658;4.608;2022-11-13T19:13:46;7.42;99.99
71297;SHT31;59082;50.658;4.608;2022-11-13T19:16:19;7.30;99.99
71297;SHT31;59082;50.658;4.608;2022-11-13T19:18:53;7.20;99.99
71297;SHT31;59082;50.658;4.608;2022-11-13T19:21:22;7.19;99.99
71297;SHT31;59082;50.658;4.608;2022-11-13T19:23:48;7.15;99.99
71297;SHT31;59082;50.658;4.608;2022-11-13T19:26:14;7.12;99.99
71297;SHT31;59082;50.658;4.608;2022-11-13T19:28:40;7.11;99.99
71297;SHT31;59082;50.658;4.608;2022-11-13T19:31:06;7.05;99.99
71297;SHT31;59082;50.658;4.608;2022-11-13T19:33:33;7.09;99.99
71297;SHT31;59082;50.658;4.608;2022-11-13T19:36:05;7.08;99.99
71297;SHT31;59082;50.658;4.608;2022-11-13T19:38:31;7.07;99.99
71297;SHT31;59082;50.658;4.608;2022-11-13T19:40:56;7.04;99.99
71297;SHT31;59082;50.658;4.608;2022-11-13T19:43:22;7.07;99.99
71297;SHT31;59082;50.658;4.608;2022-11-13T19:45:47;7.08;99.99
71297;SHT31;59082;50.658;4.608;2022-11-13T19:48:13;7.07;99.99
71297;SHT31;59082;50.658;4.608;2022-11-13T19:50:38;7.02;99.99
71297;SHT31;59082;50.658;4.608;2022-11-13T19:53:04;6.99;99.99
71297;SHT31;59082;50.658;4.608;2022-11-13T19:55:30;6.91;99.99
71297;SHT31;59082;50.658;4.608;2022-11-13T19:57:59;6.84;99.99
71297;SHT31;59082;50.658;4.608;2022-11-13T20:00:24;6.78;99.99
71297;SHT31;59082;50.658;4.608;2022-11-13T20:02:50;6.73;99.99
71297;SHT31;59082;50.658;4.608;2022-11-13T20:05:15;6.66;99.99
71297;SHT31;59082;50.658;4.608;2022-11-13T20:07:41;6.63;99.99
71297;SHT31;59082;50.658;4.608;2022-11-13T20:10:07;6.56;99.99
71297;SHT31;59082;50.658;4.608;2022-11-13T20:12:32;6.56;99.99
71297;SHT31;59082;50.658;4.608;2022-11-13T20:14:58;6.50;99.99
71297;SHT31;59082;50.658;4.608;2022-11-13T20:17:24;6.56;99.99
71297;SHT31;59082;50.658;4.608;2022-11-13T20:19:49;6.57;99.99
71297;SHT31;59082;50.658;4.608;2022-11-13T20:22:15;6.61;99.99
71297;SHT31;59082;50.658;4.608;2022-11-13T20:24:41;6.70;99.99
71297;SHT31;59082;50.658;4.608;2022-11-13T20:27:06;6.81;99.99
71297;SHT31;59082;50.658;4.608;2022-11-13T20:29:32;6.87;99.99
71297;SHT31;59082;50.658;4.608;2022-11-13T20:31:58;6.97;99.99
71297;SHT31;59082;50.658;4.608;2022-11-13T20:34:24;7.01;99.99
71297;SHT31;59082;50.658;4.608;2022-11-13T20:36:49;7.08;99.99
71297;SHT31;59082;50.658;4.608;2022-11-13T20:39:15;7.04;99.99
71297;SHT31;59082;50.658;4.608;2022-11-13T20:41:40;6.99;99.99
71297;SHT31;59082;50.658;4.608;2022-11-13T20:44:06;6.92;99.99
71297;SHT31;59082;50.658;4.608;2022-11-13T20:46:31;6.88;99.99
71297;SHT31;59082;50.658;4.608;2022-11-13T20:48:57;6.81;99.99
71297;SHT31;59082;50.658;4.608;2022-11-13T20:51:25;6.80;99.99
71297;SHT31;59082;50.658;4.608;2022-11-13T20:53:51;6.81;99.99
71297;SHT31;59082;50.658;4.608;2022-11-13T20:56:18;6.78;99.99
71297;SHT31;59082;50.658;4.608;2022-11-13T20:58:44;6.78;99.99
71297;SHT31;59082;50.658;4.608;2022-11-13T21:03:43;6.77;99.99
71297;SHT31;59082;50.658;4.608;2022-11-13T21:06:15;6.77;99.99
71297;SHT31;59082;50.658;4.608;2022-11-13T21:08:41;6.76;99.99
71297;SHT31;59082;50.658;4.608;2022-11-13T21:11:15;6.67;99.99
71297;SHT31;59082;50.658;4.608;2022-11-13T21:13:43;6.58;99.99
71297;SHT31;59082;50.658;4.608;2022-11-13T21:16:09;6.54;99.99
71297;SHT31;59082;50.658;4.608;2022-11-13T21:18:35;6.49;99.99
71297;SHT31;59082;50.658;4.608;2022-11-13T21:21:08;6.40;99.99
71297;SHT31;59082;50.658;4.608;2022-11-13T21:23:35;6.40;99.99
71297;SHT31;59082;50.658;4.608;2022-11-13T21:26:02;6.34;99.99
71297;SHT31;59082;50.658;4.608;2022-11-13T21:28:28;6.29;99.99
71297;SHT31;59082;50.658;4.608;2022-11-13T21:31:02;6.29;99.99
71297;SHT31;59082;50.658;4.608;2022-11-13T21:33:39;6.25;99.99
71297;SHT31;59082;50.658;4.608;2022-11-13T21:36:07;6.19;99.99
71297;SHT31;59082;50.658;4.608;2022-11-13T21:38:33;6.09;99.99
71297;SHT31;59082;50.658;4.608;2022-11-13T21:41:01;6.04;99.99
71297;SHT31;59082;50.658;4.608;2022-11-13T21:44:18;6.01;99.99
71297;SHT31;59082;50.658;4.608;2022-11-13T21:46:38;5.92;99.99
71297;SHT31;59082;50.658;4.608;2022-11-13T21:49:08;5.90;99.99
71297;SHT31;59082;50.658;4.608;2022-11-13T21:51:36;5.83;99.99
71297;SHT31;59082;50.658;4.608;2022-11-13T21:54:01;5.78;99.99
71297;SHT31;59082;50.658;4.608;2022-11-13T21:56:29;5.77;99.99
71297;SHT31;59082;50.658;4.608;2022-11-13T21:58:55;5.74;99.99
71297;SHT31;59082;50.658;4.608;2022-11-13T22:01:21;5.75;99.99
71297;SHT31;59082;50.658;4.608;2022-11-13T22:03:47;5.85;99.99
71297;SHT31;59082;50.658;4.608;2022-11-13T22:06:29;5.91;99.99
71297;SHT31;59082;50.658;4.608;2022-11-13T22:08:59;5.92;99.99
71297;SHT31;59082;50.658;4.608;2022-11-13T22:11:30;5.88;99.99
